Errachidia, Morocco

3:35 PM WET on February 14, 2016 (GMT +0000)
Moulay Ali Cherif | | Change Station
CLOSE
Current Station
Airport
Location: Errachidia,
Elevation: 3425 ft
Nearby Weather Stations

Elev 3425 ft 31.93 °N, 4.40 °W | Updated 35 minutes ago

Clear
Clear
77 °F
Feels Like 77 °F
N
29
Wind Variable Wind from NW
Gusts 46 mph

Today
High -- | Low -- °F
--% Chance of Precip.
Yesterday
High -- | Low -- °F
Precip. -- in
Pressure 29.92 in
Visibility -9999.0 miles
Clouds
Dew Point 10 °F
Humidity 8%
Rainfall 0.00 in
Snow Depth Not available.
7:01 AM 6:02 PM
Waxing Crescent, 42% visible
METAR GMFK 141500Z 31025G40KT 290V350 CAVOK 25/M12 Q1013 BECMG 32030G50KT
Pressure 29.92 in
Visibility -9999.0 miles
Clouds
Dew Point 10 °F
Humidity 8%
Rainfall 0.00 in
Snow Depth Not available.
7:01 AM 6:02 PM
Waxing Crescent, 42% visible
METAR GMFK 141500Z 31025G40KT 290V350 CAVOK 25/M12 Q1013 BECMG 32030G50KT

10-Day Weather Forecast

No radar image for this location.
×

Almanac

Astronomy

Feb. 14, 2016 Rise Set
Actual Time
Civil Twilight
Nautical Twilight
Astronomical Twilight
Moon
Length of Visible Light
Length of Day
Tomorrow will be .
, % of the Moon is Illuminated

Today's Extremes

Country Highs Country Lows

Community

WunderPhotos

Upload Photos

1,892,795 photos uploaded!

WunderBlog® & News

Nearby

Air Quality

  Air Quality AQ Index Pollutant
Not available.

Snow Depth

Station Depth Elevation

Earthquake Activity

City Distance Mag. Time & Date
Minimum magnitude displayed is 2.5.

Coastal Water Temperatures

Place Temperature

Stations

Nearby Weather Stations

Station Location Temp. Windchill Dew Point Humidity Wind Precip. Elev Updated Type